createdAt,value
2019-01-12T00:03:08.679Z,20.45
2019-01-12T00:08:12.824Z,16.27
2019-01-12T00:13:16.870Z,19.23
2019-01-12T00:18:20.819Z,17.35
2019-01-12T00:23:24.880Z,21.27
2019-01-12T00:28:29.050Z,17.03
2019-01-12T00:33:33.710Z,19.30
2019-01-12T00:38:38.132Z,19.85
2019-01-12T00:43:42.158Z,19.42
2019-01-12T00:48:47.139Z,22.00
2019-01-12T00:53:51.184Z,18.70
2019-01-12T00:58:55.128Z,19.42
2019-01-12T01:03:59.342Z,20.70
2019-01-12T01:09:07.648Z,20.48
2019-01-12T01:14:11.644Z,16.42
2019-01-12T01:19:15.857Z,19.45
2019-01-12T01:24:19.920Z,20.55
2019-01-12T01:29:24.066Z,18.55
2019-01-12T01:34:28.065Z,17.87
2019-01-12T01:39:32.133Z,17.10
2019-01-12T01:44:36.099Z,18.30
2019-01-12T01:49:40.550Z,19.92
2019-01-12T01:54:44.773Z,19.75
2019-01-12T01:59:48.803Z,17.02
2019-01-12T02:04:52.840Z,19.97
2019-01-12T02:09:56.830Z,17.77
2019-01-12T02:15:01.046Z,18.85
2019-01-12T02:20:05.280Z,15.25
2019-01-12T02:25:09.560Z,19.63
2019-01-12T02:30:22.301Z,20.90
2019-01-12T02:35:26.479Z,20.90
2019-01-12T02:40:30.623Z,19.37
2019-01-12T02:45:34.785Z,18.98
2019-01-12T02:50:39.640Z,17.75
2019-01-12T02:55:43.670Z,19.33
2019-01-12T03:00:47.682Z,19.20
2019-01-12T03:05:52.072Z,17.48
2019-01-12T03:10:56.191Z,16.63
2019-01-12T03:16:00.219Z,20.77
2019-01-12T03:21:06.750Z,16.37
2019-01-12T03:26:12.284Z,19.20
2019-01-12T03:31:16.407Z,21.27
2019-01-12T03:36:23.566Z,20.70
2019-01-12T03:41:27.567Z,22.40
2019-01-12T03:46:31.617Z,22.60
2019-01-12T03:51:39.147Z,22.32
2019-01-12T03:56:43.194Z,17.75
2019-01-12T04:01:49.066Z,20.12
2019-01-12T04:06:53.084Z,21.20
2019-01-12T04:11:57.163Z,22.37
2019-01-12T04:17:01.345Z,23.40
2019-01-12T04:22:05.412Z,18.83
2019-01-12T04:27:09.317Z,19.93
2019-01-12T04:32:13.355Z,23.83
2019-01-12T04:37:17.446Z,23.05
2019-01-12T04:42:22.005Z,17.73
2019-01-12T04:47:26.132Z,21.97
2019-01-12T04:52:30.975Z,20.13
2019-01-12T04:57:34.953Z,20.57
2019-01-12T05:02:39.119Z,17.97
2019-01-12T05:07:43.046Z,17.30
2019-01-12T05:12:47.009Z,17.23
2019-01-12T05:17:51.064Z,21.02
2019-01-12T05:22:54.993Z,14.97
2019-01-12T05:28:00.636Z,20.50
2019-01-12T05:33:06.353Z,19.07
2019-01-12T05:38:10.500Z,17.13
2019-01-12T05:43:15.982Z,24.87
2019-01-12T05:48:20.126Z,20.20
2019-01-12T05:53:24.685Z,22.93
2019-01-12T05:58:28.605Z,19.13
2019-01-12T06:03:33.101Z,22.02
2019-01-12T06:08:37.308Z,16.05
2019-01-12T06:13:41.898Z,18.43
2019-01-12T06:18:47.550Z,20.90
2019-01-12T06:23:51.412Z,17.93
2019-01-12T06:28:55.603Z,14.90
2019-01-12T06:33:59.501Z,20.90
2019-01-12T06:39:08.288Z,19.00
2019-01-12T06:44:14.191Z,23.60
2019-01-12T06:49:18.375Z,21.30
2019-01-12T06:54:25.152Z,13.60
2019-01-12T06:59:29.363Z,17.10
2019-01-12T07:04:35.417Z,17.90
2019-01-12T07:09:39.397Z,20.13
2019-01-12T07:14:43.576Z,23.10
2019-01-12T07:19:47.921Z,25.73
2019-01-12T07:24:52.401Z,23.47
2019-01-12T07:29:56.472Z,24.07
2019-01-12T07:35:00.898Z,17.55
2019-01-12T07:40:05.215Z,17.42
2019-01-12T07:45:09.390Z,24.00
2019-01-12T07:50:14.593Z,20.25
2019-01-12T07:55:19.389Z,18.00
2019-01-12T08:00:23.504Z,18.77
2019-01-12T08:05:27.792Z,19.82
2019-01-12T08:10:31.739Z,23.30
2019-01-12T08:15:35.757Z,43.65
2019-01-12T08:20:39.779Z,26.48
2019-01-12T08:25:44.029Z,23.90
2019-01-12T08:30:47.930Z,29.77
2019-01-12T08:35:51.989Z,20.53
2019-01-12T08:40:56.113Z,20.97
2019-01-12T08:46:00.830Z,16.00
2019-01-12T08:51:05.281Z,16.57
2019-01-12T08:56:10.451Z,19.40
2019-01-12T09:01:14.661Z,34.92
2019-01-12T09:06:18.695Z,19.60
2019-01-12T09:11:22.777Z,65.32
2019-01-12T09:16:27.025Z,48.08
2019-01-12T09:21:31.044Z,53.80
2019-01-12T09:26:36.468Z,45.92
2019-01-12T09:31:40.450Z,50.60
2019-01-12T09:36:44.628Z,57.08
2019-01-12T09:41:48.594Z,65.40
2019-01-12T09:46:52.728Z,42.38
2019-01-12T09:51:57.165Z,43.28
2019-01-12T09:57:03.667Z,40.23
2019-01-12T10:02:08.029Z,44.27
2019-01-12T10:07:12.547Z,42.95
2019-01-12T10:12:16.532Z,33.50
2019-01-12T10:17:20.655Z,49.85
2019-01-12T10:22:28.582Z,43.98
2019-01-12T10:27:30.931Z,40.15
2019-01-12T10:32:35.147Z,38.28
2019-01-12T10:37:39.478Z,35.43
2019-01-12T10:42:43.785Z,41.70
2019-01-12T10:47:49.469Z,68.55
2019-01-12T10:52:53.963Z,58.65
2019-01-12T10:58:00.140Z,30.32
2019-01-12T11:03:04.901Z,36.08
2019-01-12T11:08:08.986Z,28.10
2019-01-12T11:13:12.925Z,33.08
2019-01-12T11:18:16.850Z,29.48
2019-01-12T11:23:21.695Z,32.48
2019-01-12T11:28:34.732Z,28.70
2019-01-12T11:33:39.394Z,21.37
2019-01-12T11:38:52.556Z,24.45
2019-01-12T11:43:58.169Z,29.72
2019-01-12T11:49:02.799Z,26.55
2019-01-12T11:54:39.811Z,24.35
2019-01-12T11:59:49.904Z,31.23
2019-01-12T12:04:53.915Z,26.57
2019-01-12T12:09:58.135Z,27.25
2019-01-12T12:15:02.182Z,30.27
2019-01-12T12:20:10.263Z,19.42
2019-01-12T12:25:14.515Z,33.78
2019-01-12T12:30:21.271Z,24.40
2019-01-12T12:35:25.558Z,23.27
2019-01-12T12:40:29.923Z,42.27
2019-01-12T12:45:35.701Z,32.03
2019-01-12T12:50:39.695Z,26.68
2019-01-12T12:55:45.657Z,38.33
2019-01-12T13:00:50.458Z,32.42
2019-01-12T13:05:54.760Z,28.98
2019-01-12T13:10:58.929Z,31.07
2019-01-12T13:16:03.173Z,32.88
2019-01-12T13:21:07.189Z,34.70
2019-01-12T13:26:11.223Z,42.43
2019-01-12T13:31:15.225Z,26.10
2019-01-12T13:36:19.394Z,26.37
2019-01-12T13:41:23.321Z,17.57
2019-01-12T13:46:27.516Z,30.05
2019-01-12T13:51:31.501Z,17.30
2019-01-12T13:56:35.666Z,18.20
2019-01-12T14:01:40.350Z,14.55
2019-01-12T14:06:44.582Z,23.60
2019-01-12T14:11:48.713Z,14.47
2019-01-12T14:16:52.968Z,15.95
2019-01-12T14:21:57.122Z,22.22
2019-01-12T14:27:01.309Z,21.27
2019-01-12T14:32:05.451Z,19.75
2019-01-12T14:37:09.490Z,17.37
2019-01-12T14:42:13.415Z,16.10
2019-01-12T14:47:17.403Z,17.92
2019-01-12T14:52:21.525Z,23.85
2019-01-12T14:57:25.827Z,14.60
2019-01-12T15:02:30.514Z,23.42
2019-01-12T15:07:34.829Z,23.62
2019-01-12T15:12:39.038Z,20.80
2019-01-12T15:17:42.946Z,17.85
2019-01-12T15:22:47.629Z,18.85
2019-01-12T15:27:51.883Z,18.27
2019-01-12T15:32:55.973Z,26.30
2019-01-12T15:38:00.021Z,16.27
2019-01-12T15:43:04.265Z,11.30
2019-01-12T15:48:08.359Z,20.10
2019-01-12T15:53:13.564Z,20.95
2019-01-12T15:58:17.682Z,20.57
2019-01-12T16:03:22.137Z,13.90
2019-01-12T16:08:26.316Z,24.40
2019-01-12T16:13:31.170Z,29.33
2019-01-12T16:18:36.039Z,15.77
2019-01-12T16:23:40.074Z,17.87
2019-01-12T16:28:44.436Z,15.77
2019-01-12T16:33:48.711Z,13.30
2019-01-12T16:38:52.788Z,16.27
2019-01-12T16:43:56.861Z,18.80
2019-01-12T16:49:00.986Z,12.88
2019-01-12T16:54:05.076Z,15.90
2019-01-12T16:59:09.224Z,18.42
2019-01-12T17:04:13.865Z,18.77
2019-01-12T17:09:17.917Z,13.77
2019-01-12T17:14:22.112Z,13.55
2019-01-12T17:19:26.284Z,12.28
2019-01-12T17:24:30.516Z,16.45
2019-01-12T17:29:35.776Z,14.63
2019-01-12T17:34:40.936Z,10.18
2019-01-12T17:39:46.041Z,14.67
2019-01-12T17:44:50.440Z,15.50
2019-01-12T17:49:54.410Z,7.63
2019-01-12T17:54:58.507Z,11.03
2019-01-12T18:00:03.711Z,7.28
2019-01-12T18:05:10.141Z,8.13
2019-01-12T18:10:15.213Z,6.47
2019-01-12T18:15:19.466Z,11.57
2019-01-12T18:20:23.606Z,10.20
2019-01-12T18:25:27.648Z,11.65
2019-01-12T18:30:31.845Z,8.87
2019-01-12T18:35:36.106Z,15.18
2019-01-12T18:40:40.289Z,11.53
2019-01-12T18:45:44.231Z,12.58
2019-01-12T18:50:49.345Z,6.08
2019-01-12T18:55:53.220Z,10.85
2019-01-12T19:00:58.575Z,9.60
2019-01-12T19:06:03.987Z,5.70
2019-01-12T19:11:08.234Z,11.43
2019-01-12T19:16:12.304Z,5.97
2019-01-12T19:21:16.445Z,6.08
2019-01-12T19:26:20.518Z,13.15
2019-01-12T19:31:24.599Z,9.00
2019-01-12T19:36:29.039Z,5.33
2019-01-12T19:41:33.175Z,5.95
2019-01-12T19:46:37.507Z,6.10
2019-01-12T19:51:41.853Z,6.50
2019-01-12T19:56:45.944Z,5.60
2019-01-12T20:01:50.271Z,7.28
2019-01-12T20:06:54.752Z,5.58
2019-01-12T20:11:58.780Z,7.53
2019-01-12T20:17:04.917Z,8.10
2019-01-12T20:22:09.773Z,8.33
2019-01-12T20:27:13.768Z,9.37
2019-01-12T20:32:49.582Z,10.18
2019-01-12T20:38:34.584Z,11.18
2019-01-12T20:44:43.719Z,9.63
2019-01-12T20:50:38.419Z,10.53
2019-01-12T20:56:24.249Z,5.83
2019-01-12T21:01:39.328Z,9.90
2019-01-12T21:07:07.215Z,7.90
2019-01-12T21:13:06.001Z,20.00
2019-01-12T21:18:10.107Z,17.35
2019-01-12T21:23:14.175Z,7.62
2019-01-12T21:28:18.715Z,11.12
2019-01-12T21:33:22.665Z,4.47
2019-01-12T21:38:26.762Z,8.40
2019-01-12T21:43:30.873Z,19.30
2019-01-12T21:48:34.955Z,7.97
2019-01-12T21:53:39.211Z,6.60
2019-01-12T21:58:43.643Z,8.80
2019-01-12T22:03:47.642Z,8.90
2019-01-12T22:08:51.860Z,5.80
2019-01-12T22:13:57.737Z,9.18
2019-01-12T22:19:02.809Z,8.65
2019-01-12T22:24:06.992Z,9.63
2019-01-12T22:29:10.966Z,5.90
2019-01-12T22:34:14.867Z,17.12
2019-01-12T22:39:18.922Z,10.55
2019-01-12T22:44:22.819Z,12.18
2019-01-12T22:49:26.851Z,17.45
2019-01-12T22:54:30.940Z,14.87
2019-01-12T22:59:35.039Z,31.90
2019-01-12T23:04:38.953Z,14.58
2019-01-12T23:09:43.944Z,32.10
2019-01-12T23:14:48.285Z,10.33
2019-01-12T23:19:52.463Z,18.92
2019-01-12T23:24:56.543Z,12.20
2019-01-12T23:30:04.623Z,12.53
2019-01-12T23:35:07.448Z,19.20
2019-01-12T23:40:11.941Z,13.27
2019-01-12T23:45:16.061Z,16.35
2019-01-12T23:50:20.128Z,19.80
2019-01-12T23:55:24.754Z,26.23
